Aegean Tiffany — SVAE9 — position and weather

sailwx.info

Track history (hours):
 
Tides and Currents Weather Stations Pressure Air Temp Water Temp Dewpoint Dewpoint Depression Visibility Wind Speed Wind Dir Waves Ship Positions

Aegean Tiffany

Last reported at 2016-Jun-23 02:33 UTC. Time now 2016-Jun-29 16:30 UTC.
Position N 38°10' E 022°33'.

Length 80 m; draft 5.5 m.

Type: Tanker. MMSI: 240870000.

Date/timePositionNaut miles runAvg speedWind from/ knotsBaromVisibWave heightAir tempDewpointWater temp
2016-Jun-23 02:33N 38°10' E 022°33'28 6.9
2016-Jun-22 22:33N 37°55' E 023°02'8 7.9
2016-Jun-22 21:32N 37°55' E 023°12'8 8.0
2016-Jun-22 20:33N 37°57' E 023°22'6 6.2
2016-Jun-22 19:33N 38°01' E 023°29'3 1.4
2016-Jun-22 17:33N 38°02' E 023°32'0 0.0
2016-Jun-22 16:33N 38°02' E 023°32'0 0.0
2016-Jun-22 15:32N 38°02' E 023°32'0 0.0
2016-Jun-22 14:33N 38°02' E 023°32'0 0.0
2016-Jun-22 13:33N 38°02' E 023°32'0 0.0
2016-Jun-22 12:33N 38°02' E 023°32'0 0.0
2016-Jun-22 11:33N 38°02' E 023°32'0 0.0
2016-Jun-22 10:33N 38°02' E 023°32'0 0.0
2016-Jun-22 09:33N 38°02' E 023°32'0 0.0
2016-Jun-22 08:34N 38°02' E 023°32'0 0.0
2016-Jun-22 07:34N 38°02' E 023°32'0 0.4
2016-Jun-22 06:34N 38°02' E 023°32'0 0.0
2016-Jun-22 05:33N 38°02' E 023°32'0 0.0
2016-Jun-22 04:33N 38°02' E 023°32'0 0.1
2016-Jun-22 03:34N 38°02' E 023°32'1 1.1
2016-Jun-22 02:34N 38°02' E 023°31'0 0.0
2016-Jun-22 01:33N 38°02' E 023°31'0 0.0
2016-Jun-22 00:33N 38°02' E 023°31'0 0.0
2016-Jun-21 23:34N 38°02' E 023°31'0 0.0
2016-Jun-21 22:33N 38°02' E 023°31'0 0.0
2016-Jun-21 21:33N 38°02' E 023°31'0 0.0
2016-Jun-21 20:34N 38°02' E 023°31'0 0.2
2016-Jun-21 19:33N 38°02' E 023°31'0 0.2
2016-Jun-21 18:34N 38°02' E 023°31'4 3.5
2016-Jun-21 17:34N 38°02' E 023°36'0 0.0
2016-Jun-21 16:33N 38°02' E 023°36'0 0.0
2016-Jun-21 15:34N 38°02' E 023°36'0 0.0
2016-Jun-21 14:33N 38°02' E 023°36'0 0.0
2016-Jun-21 13:33N 38°02' E 023°36'0 0.0
2016-Jun-21 12:34N 38°02' E 023°36'0 0.0
2016-Jun-21 11:34N 38°02' E 023°36'0 0.5
2016-Jun-21 10:33N 38°02' E 023°35'3 0.1
2016-Jun-20 14:28N 38°02' E 023°32'3 3.8
2016-Jun-20 13:33N 37°59' E 023°33'4 3.8
2016-Jun-20 12:33N 37°57' E 023°37'0 0.0
2016-Jun-20 11:33N 37°57' E 023°37'0 0.0
2016-Jun-20 10:33N 37°57' E 023°37'2 1.7
2016-Jun-20 09:33N 37°57' E 023°35'6 5.6
2016-Jun-20 08:34N 38°02' E 023°32'1 1.3
2016-Jun-20 07:33N 38°02' E 023°30'7 6.5
2016-Jun-20 06:34N 37°57' E 023°24'8 8.1
2016-Jun-20 05:34N 37°55' E 023°14'8 8.2
2016-Jun-20 04:33N 37°54' E 023°04'25 7.6
2016-Jun-20 01:13N 38°08' E 022°37'6 8.5
2016-Jun-20 00:33N 38°10' E 022°30'36 2.4
2016-Jun-19 09:18N 38°15' E 021°44'0 0.0
2016-Jun-19 04:32N 38°15' E 021°44'0 0.0
2016-Jun-19 03:30N 38°15' E 021°44'0 0.0
2016-Jun-19 02:34N 38°15' E 021°44'0 0.0
2016-Jun-18 21:11N 38°15' E 021°44'0 0.0
2016-Jun-18 20:32N 38°15' E 021°44'0 0.0
2016-Jun-18 17:27N 38°15' E 021°44'0 0.0
2016-Jun-18 08:27N 38°15' E 021°44'0 0.0
2016-Jun-18 07:27N 38°15' E 021°44'0 0.0
2016-Jun-17 23:24N 38°15' E 021°44'0 0.0
2016-Jun-17 22:31N 38°15' E 021°44'0 0.0
2016-Jun-17 21:19N 38°15' E 021°44'0 0.0
2016-Jun-17 20:33N 38°15' E 021°44'0 0.0
2016-Jun-17 17:10N 38°15' E 021°44'34 0.9
2016-Jun-16 04:18N 38°11' E 022°27'6 7.2
2016-Jun-16 03:27N 38°09' E 022°34'25 6.3
2016-Jun-15 23:30N 37°55' E 023°00'6 6.2
2016-Jun-15 22:33N 37°55' E 023°08'7 7.4
2016-Jun-15 21:34N 37°56' E 023°17'7 7.0
2016-Jun-15 20:33N 37°58' E 023°26'5 5.3
2016-Jun-15 19:34N 38°02' E 023°30'2 0.1
2016-Jun-14 13:33N 38°02' E 023°32'1 1.0
2016-Jun-14 12:33N 38°02' E 023°31'0 0.0
2016-Jun-14 11:33N 38°02' E 023°31'0 0.0
2016-Jun-14 10:34N 38°02' E 023°31'0 0.0
2016-Jun-14 09:33N 38°02' E 023°31'0 0.0
2016-Jun-14 08:34N 38°02' E 023°31'0 0.0
2016-Jun-14 07:33N 38°02' E 023°31'0 0.0
2016-Jun-14 05:33N 38°02' E 023°31'0 0.0
2016-Jun-14 04:34N 38°02' E 023°31'0 0.0
2016-Jun-14 03:33N 38°02' E 023°31'2 2.1
2016-Jun-14 02:33N 38°02' E 023°33'2 1.9
2016-Jun-14 01:33N 38°02' E 023°36'0 0.0
2016-Jun-14 00:33N 38°02' E 023°36'0 0.0
2016-Jun-13 23:34N 38°02' E 023°36'0 0.0
2016-Jun-13 22:33N 38°02' E 023°36'0 0.0
2016-Jun-13 21:33N 38°02' E 023°36'0 0.0
2016-Jun-13 20:34N 38°02' E 023°36'3 3.0
2016-Jun-13 19:33N 38°02' E 023°32'0 0.0
2016-Jun-13 18:33N 38°02' E 023°32'0 0.0
2016-Jun-13 17:33N 38°02' E 023°32'0 0.0
2016-Jun-13 16:33N 38°02' E 023°32'0 0.0
2016-Jun-13 15:33N 38°02' E 023°32'0 0.0
2016-Jun-13 14:34N 38°02' E 023°32'0 0.0
2016-Jun-13 13:33N 38°02' E 023°32'0 0.0
2016-Jun-13 12:33N 38°02' E 023°32'0 0.0
2016-Jun-13 11:33N 38°02' E 023°32'0 0.0
2016-Jun-13 10:33N 38°02' E 023°32'0 0.0
2016-Jun-13 09:33N 38°02' E 023°32'0 0.0
2016-Jun-13 08:33N 38°02' E 023°32'0 0.0
2016-Jun-13 07:33N 38°02' E 023°32'0 0.0
2016-Jun-13 06:33N 38°02' E 023°32'0 0.0
2016-Jun-13 05:33N 38°02' E 023°32'0 0.0
2016-Jun-13 04:33N 38°02' E 023°32'  
Track history (hours):
 
Tides and Currents Weather Stations Pressure Air Temp Water Temp Dewpoint Dewpoint Depression Visibility Wind Speed Wind Dir Waves Ship Positions

Aegean Tiffany

Last reported at 2016-Jun-23 02:33 UTC. Time now 2016-Jun-29 16:30 UTC.
Position N 38°10' E 022°33'.

Length 80 m; draft 5.5 m.

Type: Tanker. MMSI: 240870000.

Date/timePositionNaut miles runAvg speedWind from/ knotsBaromVisibWave heightAir tempDewpointWater temp
2016-Jun-23 02:33N 38°10' E 022°33'28 6.9
2016-Jun-22 22:33N 37°55' E 023°02'8 7.9
2016-Jun-22 21:32N 37°55' E 023°12'8 8.0
2016-Jun-22 20:33N 37°57' E 023°22'6 6.2
2016-Jun-22 19:33N 38°01' E 023°29'3 1.4
2016-Jun-22 17:33N 38°02' E 023°32'0 0.0
2016-Jun-22 16:33N 38°02' E 023°32'0 0.0
2016-Jun-22 15:32N 38°02' E 023°32'0 0.0
2016-Jun-22 14:33N 38°02' E 023°32'0 0.0
2016-Jun-22 13:33N 38°02' E 023°32'0 0.0
2016-Jun-22 12:33N 38°02' E 023°32'0 0.0
2016-Jun-22 11:33N 38°02' E 023°32'0 0.0
2016-Jun-22 10:33N 38°02' E 023°32'0 0.0
2016-Jun-22 09:33N 38°02' E 023°32'0 0.0
2016-Jun-22 08:34N 38°02' E 023°32'0 0.0
2016-Jun-22 07:34N 38°02' E 023°32'0 0.4
2016-Jun-22 06:34N 38°02' E 023°32'0 0.0
2016-Jun-22 05:33N 38°02' E 023°32'0 0.0
2016-Jun-22 04:33N 38°02' E 023°32'0 0.1
2016-Jun-22 03:34N 38°02' E 023°32'1 1.1
2016-Jun-22 02:34N 38°02' E 023°31'0 0.0
2016-Jun-22 01:33N 38°02' E 023°31'0 0.0
2016-Jun-22 00:33N 38°02' E 023°31'0 0.0
2016-Jun-21 23:34N 38°02' E 023°31'0 0.0
2016-Jun-21 22:33N 38°02' E 023°31'0 0.0
2016-Jun-21 21:33N 38°02' E 023°31'0 0.0
2016-Jun-21 20:34N 38°02' E 023°31'0 0.2
2016-Jun-21 19:33N 38°02' E 023°31'0 0.2
2016-Jun-21 18:34N 38°02' E 023°31'4 3.5
2016-Jun-21 17:34N 38°02' E 023°36'0 0.0
2016-Jun-21 16:33N 38°02' E 023°36'0 0.0
2016-Jun-21 15:34N 38°02' E 023°36'0 0.0
2016-Jun-21 14:33N 38°02' E 023°36'0 0.0
2016-Jun-21 13:33N 38°02' E 023°36'0 0.0
2016-Jun-21 12:34N 38°02' E 023°36'0 0.0
2016-Jun-21 11:34N 38°02' E 023°36'0 0.5
2016-Jun-21 10:33N 38°02' E 023°35'3 0.1
2016-Jun-20 14:28N 38°02' E 023°32'3 3.8
2016-Jun-20 13:33N 37°59' E 023°33'4 3.8
2016-Jun-20 12:33N 37°57' E 023°37'0 0.0
2016-Jun-20 11:33N 37°57' E 023°37'0 0.0
2016-Jun-20 10:33N 37°57' E 023°37'2 1.7
2016-Jun-20 09:33N 37°57' E 023°35'6 5.6
2016-Jun-20 08:34N 38°02' E 023°32'1 1.3
2016-Jun-20 07:33N 38°02' E 023°30'7 6.5
2016-Jun-20 06:34N 37°57' E 023°24'8 8.1
2016-Jun-20 05:34N 37°55' E 023°14'8 8.2
2016-Jun-20 04:33N 37°54' E 023°04'25 7.6
2016-Jun-20 01:13N 38°08' E 022°37'6 8.5
2016-Jun-20 00:33N 38°10' E 022°30'36 2.4
2016-Jun-19 09:18N 38°15' E 021°44'0 0.0
2016-Jun-19 04:32N 38°15' E 021°44'0 0.0
2016-Jun-19 03:30N 38°15' E 021°44'0 0.0
2016-Jun-19 02:34N 38°15' E 021°44'0 0.0
2016-Jun-18 21:11N 38°15' E 021°44'0 0.0
2016-Jun-18 20:32N 38°15' E 021°44'0 0.0
2016-Jun-18 17:27N 38°15' E 021°44'0 0.0
2016-Jun-18 08:27N 38°15' E 021°44'0 0.0
2016-Jun-18 07:27N 38°15' E 021°44'0 0.0
2016-Jun-17 23:24N 38°15' E 021°44'0 0.0
2016-Jun-17 22:31N 38°15' E 021°44'0 0.0
2016-Jun-17 21:19N 38°15' E 021°44'0 0.0
2016-Jun-17 20:33N 38°15' E 021°44'0 0.0
2016-Jun-17 17:10N 38°15' E 021°44'34 0.9
2016-Jun-16 04:18N 38°11' E 022°27'6 7.2
2016-Jun-16 03:27N 38°09' E 022°34'25 6.3
2016-Jun-15 23:30N 37°55' E 023°00'6 6.2
2016-Jun-15 22:33N 37°55' E 023°08'7 7.4
2016-Jun-15 21:34N 37°56' E 023°17'7 7.0
2016-Jun-15 20:33N 37°58' E 023°26'5 5.3
2016-Jun-15 19:34N 38°02' E 023°30'2 0.1
2016-Jun-14 13:33N 38°02' E 023°32'1 1.0
2016-Jun-14 12:33N 38°02' E 023°31'0 0.0
2016-Jun-14 11:33N 38°02' E 023°31'0 0.0
2016-Jun-14 10:34N 38°02' E 023°31'0 0.0
2016-Jun-14 09:33N 38°02' E 023°31'0 0.0
2016-Jun-14 08:34N 38°02' E 023°31'0 0.0
2016-Jun-14 07:33N 38°02' E 023°31'0 0.0
2016-Jun-14 05:33N 38°02' E 023°31'0 0.0
2016-Jun-14 04:34N 38°02' E 023°31'0 0.0
2016-Jun-14 03:33N 38°02' E 023°31'2 2.1
2016-Jun-14 02:33N 38°02' E 023°33'2 1.9
2016-Jun-14 01:33N 38°02' E 023°36'0 0.0
2016-Jun-14 00:33N 38°02' E 023°36'0 0.0
2016-Jun-13 23:34N 38°02' E 023°36'0 0.0
2016-Jun-13 22:33N 38°02' E 023°36'0 0.0
2016-Jun-13 21:33N 38°02' E 023°36'0 0.0
2016-Jun-13 20:34N 38°02' E 023°36'3 3.0
2016-Jun-13 19:33N 38°02' E 023°32'0 0.0
2016-Jun-13 18:33N 38°02' E 023°32'0 0.0
2016-Jun-13 17:33N 38°02' E 023°32'0 0.0
2016-Jun-13 16:33N 38°02' E 023°32'0 0.0
2016-Jun-13 15:33N 38°02' E 023°32'0 0.0
2016-Jun-13 14:34N 38°02' E 023°32'0 0.0
2016-Jun-13 13:33N 38°02' E 023°32'0 0.0
2016-Jun-13 12:33N 38°02' E 023°32'0 0.0
2016-Jun-13 11:33N 38°02' E 023°32'0 0.0
2016-Jun-13 10:33N 38°02' E 023°32'0 0.0
2016-Jun-13 09:33N 38°02' E 023°32'0 0.0
2016-Jun-13 08:33N 38°02' E 023°32'0 0.0
2016-Jun-13 07:33N 38°02' E 023°32'0 0.0
2016-Jun-13 06:33N 38°02' E 023°32'0 0.0
2016-Jun-13 05:33N 38°02' E 023°32'0 0.0
2016-Jun-13 04:33N 38°02' E 023°32'  

Dump ship's entire track history